Terminal Aerodrome Forecast
Issued by NWS Sioux Falls, SD

Home | Current Version | Previous Version | Graphics & Text | Print | Product List | Glossary On
Versions: 1 2 3 4 5 6 7 8 9 10 11 12 13 14
000
FTUS43 KFSD 251100
TAFHON
TAF
KHON 251120Z 2512/2612 30007KT P6SM SKC
     FM251400 30011KT P6SM SCT100
     FM252300 32007KT P6SM FEW100
     FM260200 35007KT P6SM SCT200=

USA.gov is the U.S. government's official web portal to all federal, state and local government web resources and services.